Manitou Springs, Colorado
Current Conditions -  °F | °C
As of 7:46 PM on Sunday 23 Nov 2014 (Local Time) from KCWN Reporting Station
Scattered Clouds Scattered Clouds  
Wind Chill: 18°   Ceiling: Unl
Heat Index: 25°   Visibility: 10mi
Dew Point: 12°   Wind: 6mph
Humidity: 59%   Direction: NA
Pressure: 29.87"   Gusts: NA
Location:  38.86°N, 104.92°W
Report Text: KCWN 240246Z AUTO VRB05KT 10SM SCT004 M04/M11 A2987 RMK AO2
Loading
Personal Weather Stations






























Interactive Weather Map New forecast layout! Learn more

10-Day Weather Forecast

Advertisements
Track Severe Weather on mobile